createdAt,value
2022-11-16T21:36:33.454Z,5.75
2022-11-16T21:39:00.431Z,5.76
2022-11-16T21:41:27.350Z,5.61
2022-11-16T21:43:53.992Z,5.63
2022-11-16T21:46:23.251Z,5.57
2022-11-16T21:48:52.651Z,5.60
2022-11-16T21:51:20.716Z,5.61
2022-11-16T21:53:47.768Z,5.64
2022-11-16T21:56:19.746Z,5.60
2022-11-16T21:58:46.906Z,5.57
2022-11-16T22:01:15.593Z,5.52
2022-11-16T22:03:42.641Z,5.46
2022-11-16T22:06:31.814Z,5.48
2022-11-16T22:08:58.238Z,5.51
2022-11-16T22:11:24.646Z,5.44
2022-11-16T22:13:51.087Z,5.51
2022-11-16T22:16:19.353Z,5.63
2022-11-16T22:18:46.340Z,5.55
2022-11-16T22:21:13.268Z,5.55
2022-11-16T22:23:40.193Z,5.49
2022-11-16T22:26:12.065Z,5.50
2022-11-16T22:28:39.309Z,5.53
2022-11-16T22:31:13.064Z,5.55
2022-11-16T22:33:40.157Z,5.46
2022-11-16T22:36:09.193Z,5.57
2022-11-16T22:38:36.095Z,5.53
2022-11-16T22:41:02.620Z,5.41
2022-11-16T22:43:30.325Z,5.42
2022-11-16T22:46:01.569Z,5.40
2022-11-16T22:48:32.474Z,5.39
2022-11-16T22:51:03.657Z,5.41
2022-11-16T22:53:30.044Z,5.35
2022-11-16T22:56:03.211Z,5.34
2022-11-16T22:58:29.571Z,5.31
2022-11-16T23:00:55.939Z,5.32
2022-11-16T23:03:22.555Z,5.31
2022-11-16T23:05:49.015Z,5.26
2022-11-16T23:08:15.411Z,5.31
2022-11-16T23:11:00.368Z,5.29
2022-11-16T23:13:45.595Z,5.33
2022-11-16T23:16:11.976Z,5.26
2022-11-16T23:18:38.403Z,5.28
2022-11-16T23:21:23.863Z,5.28
2022-11-16T23:24:25.398Z,5.21
2022-11-16T23:27:10.251Z,5.22
2022-11-16T23:29:36.759Z,5.20
2022-11-16T23:32:03.197Z,5.18
2022-11-16T23:34:29.576Z,5.19
2022-11-16T23:37:02.061Z,5.19
2022-11-16T23:39:28.449Z,5.16
2022-11-16T23:42:13.185Z,5.14
2022-11-16T23:44:39.557Z,5.09
2022-11-16T23:47:05.936Z,5.12
2022-11-16T23:49:32.353Z,5.13
2022-11-16T23:51:58.730Z,5.08
2022-11-16T23:54:25.198Z,5.02
2022-11-16T23:56:51.667Z,5.01
2022-11-16T23:59:18.148Z,5.05
